Terminal Aerodrome Forecast
Issued by NWS

Home | Current Version | Previous Version | Text Only | Print | Product List | Glossary On
Versions: 1 2 3 4 5 6 7 8 9 10 11 12 13 14 15 16 17 18 19 20 21 22 23 24 25 26 27 28 29 30
732
FTUS43 KDLH 240806 AAB
TAFHIB
TAF AMD
KHIB 240806Z 2408/2506 31011KT P6SM BKN022 OVC040
     FM241200 30006KT P6SM BKN040
     FM241800 30008KT P6SM VCSH BKN040
     FM250000 31008KT P6SM OVC035
     FM250300 31007KT P6SM OVC030=

USA.gov is the U.S. government's official web portal to all federal, state and local government web resources and services.